createdAt,value
2018-05-29T00:00:30.233Z,19.5
2018-05-29T00:05:59.620Z,19.4
2018-05-29T00:11:30.131Z,19.2
2018-05-29T00:16:59.497Z,19.2
2018-05-29T00:22:28.798Z,19.2
2018-05-29T00:27:58.259Z,19.2
2018-05-29T00:33:27.561Z,19
2018-05-29T00:38:56.938Z,18.8
2018-05-29T00:44:26.552Z,18.7
2018-05-29T00:49:56.588Z,18.8
2018-05-29T00:55:26.917Z,18.8
2018-05-29T01:00:57.249Z,18.8
2018-05-29T01:06:27.579Z,18.8
2018-05-29T01:11:57.912Z,18.7
2018-05-29T01:17:28.306Z,18.7
2018-05-29T01:22:58.540Z,18.7
2018-05-29T01:33:58.288Z,18.8
2018-05-29T01:39:28.527Z,18.8
2018-05-29T01:44:57.860Z,18.7
2018-05-29T01:50:28.282Z,18.6
2018-05-29T01:55:57.463Z,18.4
2018-05-29T02:01:26.718Z,18.2
2018-05-29T02:06:55.964Z,18.2
2018-05-29T02:12:26.247Z,18.2
2018-05-29T02:17:56.796Z,18.3
2018-05-29T02:23:26.842Z,18.4
2018-05-29T02:28:57.110Z,18.5
2018-05-29T02:34:26.393Z,18.5
2018-05-29T02:39:56.715Z,18.6
2018-05-29T02:45:26.081Z,18.6
2018-05-29T02:50:56.312Z,18.6
2018-05-29T03:01:54.934Z,18.5
2018-05-29T03:07:24.327Z,18.5
2018-05-29T03:12:53.533Z,18.5
2018-05-29T03:18:23.839Z,18.5
2018-05-29T03:23:53.079Z,18.4
2018-05-29T03:29:23.367Z,18.4
2018-05-29T03:34:52.648Z,18.4
2018-05-29T03:40:22.954Z,18.4
2018-05-29T03:45:53.208Z,18.3
2018-05-29T03:51:22.473Z,18.2
2018-05-29T03:56:52.757Z,18.2
2018-05-29T04:02:22.005Z,18.2
2018-05-29T04:07:51.326Z,18.2
2018-05-29T04:13:21.541Z,18.2
2018-05-29T04:18:50.784Z,18.2
2018-05-29T04:24:20.042Z,18.2
2018-05-29T04:29:50.362Z,18.1
2018-05-29T04:35:20.544Z,18.1
2018-05-29T04:40:50.792Z,18.1
2018-05-29T04:46:20.115Z,18.2
2018-05-29T04:51:50.261Z,18.2
2018-05-29T04:57:20.548Z,18.3
2018-05-29T05:02:49.986Z,18.3
2018-05-29T05:08:19.086Z,18.4
2018-05-29T05:13:49.357Z,18.4
2018-05-29T05:19:18.666Z,18.4
2018-05-29T05:24:48.915Z,18.4
2018-05-29T05:30:18.242Z,18.4
2018-05-29T05:35:47.472Z,18.3
2018-05-29T05:41:17.823Z,18.2
2018-05-29T05:46:46.934Z,18.1
2018-05-29T05:52:16.281Z,18
2018-05-29T05:57:46.515Z,18
2018-05-29T06:03:16.639Z,17.9
2018-05-29T06:08:46.844Z,17.9
2018-05-29T06:14:17.643Z,17.9
2018-05-29T06:19:47.291Z,17.9
2018-05-29T06:25:16.609Z,18
2018-05-29T06:30:45.753Z,18
2018-05-29T06:36:16.237Z,18.1
2018-05-29T06:41:45.222Z,18.1
2018-05-29T06:47:14.499Z,18.1
2018-05-29T06:52:44.728Z,18.1
2018-05-29T06:58:13.998Z,18
2018-05-29T07:03:43.194Z,18
2018-05-29T07:09:13.456Z,18.1
2018-05-29T07:14:43.767Z,18.3
2018-05-29T07:20:14.049Z,18.6
2018-05-29T07:25:44.318Z,18.9
2018-05-29T07:31:14.680Z,19.3
2018-05-29T07:36:45.137Z,19.6
2018-05-29T07:42:14.514Z,19.8
2018-05-29T07:47:44.899Z,19.9
2018-05-29T07:53:14.361Z,20.1
2018-05-29T07:58:43.883Z,20.4
2018-05-29T08:09:42.956Z,21
2018-05-29T08:15:13.712Z,21.2
2018-05-29T08:20:43.496Z,21.4
2018-05-29T08:26:12.817Z,21.6
2018-05-29T08:31:42.601Z,21.8
2018-05-29T08:37:13.275Z,21.9
2018-05-29T08:42:42.954Z,22
2018-05-29T08:48:13.721Z,22.1
2018-05-29T08:53:44.366Z,22.1
2018-05-29T08:59:14.087Z,22.2
2018-05-29T09:04:43.998Z,22.4
2018-05-29T09:10:13.658Z,22.4
2018-05-29T09:15:44.338Z,22.4
2018-05-29T09:21:14.139Z,22.4
2018-05-29T09:26:43.852Z,22.4
2018-05-29T09:32:14.590Z,22.5
2018-05-29T09:37:45.330Z,22.6
2018-05-29T09:43:15.129Z,22.7
2018-05-29T09:48:44.909Z,22.9
2018-05-29T09:54:14.654Z,23
2018-05-29T09:59:44.513Z,23.1
2018-05-29T10:05:14.321Z,23.2
2018-05-29T10:10:44.157Z,23.3
2018-05-29T10:16:15.380Z,23.3
2018-05-29T10:21:45.801Z,23.4
2018-05-29T10:27:15.681Z,23.5
2018-05-29T10:32:46.532Z,23.6
2018-05-29T10:38:17.444Z,23.6
2018-05-29T10:43:48.407Z,23.7
2018-05-29T10:49:19.287Z,23.8
2018-05-29T10:54:50.112Z,23.9
2018-05-29T11:00:20.968Z,23.9
2018-05-29T11:05:51.994Z,24
2018-05-29T11:11:22.823Z,24
2018-05-29T11:16:52.749Z,24.1
2018-05-29T11:22:23.749Z,24.2
2018-05-29T11:27:54.624Z,24.3
2018-05-29T11:33:24.657Z,24.4
2018-05-29T11:38:55.654Z,24.5
2018-05-29T11:44:25.632Z,24.6
2018-05-29T11:49:55.619Z,24.7
2018-05-29T11:55:26.676Z,24.8
2018-05-29T12:00:57.612Z,24.8
2018-05-29T12:06:28.660Z,24.9
2018-05-29T12:11:59.153Z,25
2018-05-29T12:17:28.756Z,25
2018-05-29T12:22:59.870Z,25.1
2018-05-29T12:28:30.885Z,25.1
2018-05-29T12:34:01.003Z,25.1
2018-05-29T12:39:31.261Z,25.2
2018-05-29T12:45:02.108Z,25.2
2018-05-29T12:50:32.190Z,25.3
2018-05-29T12:56:02.450Z,25.3
2018-05-29T13:01:32.465Z,25.4
2018-05-29T13:07:03.487Z,25.5
2018-05-29T13:12:33.634Z,25.6
2018-05-29T13:18:04.718Z,25.6
2018-05-29T13:23:35.877Z,25.7
2018-05-29T13:29:07.089Z,25.7
2018-05-29T13:34:38.184Z,25.8
2018-05-29T13:40:08.493Z,25.8
2018-05-29T13:45:39.556Z,25.8
2018-05-29T13:51:10.669Z,25.9
2018-05-29T13:56:41.879Z,25.9
2018-05-29T14:02:12.040Z,26
2018-05-29T14:07:42.223Z,26
2018-05-29T14:13:13.422Z,26
2018-05-29T14:18:43.655Z,26
2018-05-29T14:24:13.742Z,26
2018-05-29T14:29:43.982Z,26.1
2018-05-29T14:35:14.195Z,26.1
2018-05-29T14:40:44.426Z,26.1
2018-05-29T14:46:14.531Z,26
2018-05-29T14:51:45.648Z,25.9
2018-05-29T14:57:16.839Z,25.9
2018-05-29T15:02:47.054Z,25.8
2018-05-29T15:08:17.229Z,25.8
2018-05-29T15:13:48.370Z,25.7
2018-05-29T15:24:49.870Z,25.6
2018-05-29T15:30:20.773Z,25.5
2018-05-29T15:35:51.914Z,25.5
2018-05-29T15:41:23.103Z,25.5
2018-05-29T15:52:24.274Z,25.5
2018-05-29T15:57:54.445Z,25.5
2018-05-29T16:03:25.620Z,25.5
2018-05-29T16:08:56.728Z,25.5
2018-05-29T16:14:27.874Z,25.5
2018-05-29T16:19:58.127Z,25.4
2018-05-29T16:25:28.070Z,25.4
2018-05-29T16:30:58.282Z,25.4
2018-05-29T16:36:29.339Z,25.5
2018-05-29T16:42:00.477Z,25.5
2018-05-29T16:47:30.587Z,25.4
2018-05-29T16:53:01.257Z,25.4
2018-05-29T16:58:31.887Z,25.4
2018-05-29T17:04:02.030Z,25.3
2018-05-29T17:09:32.175Z,25.3
2018-05-29T17:15:02.295Z,25.2
2018-05-29T17:20:33.455Z,25.1
2018-05-29T17:26:04.500Z,25
2018-05-29T17:31:35.499Z,24.8
2018-05-29T17:37:06.482Z,24.6
2018-05-29T17:42:36.451Z,24.3
2018-05-29T17:48:06.410Z,24.1
2018-05-29T17:53:36.375Z,23.9
2018-05-29T17:59:06.310Z,23.8
2018-05-29T18:04:36.195Z,23.7
2018-05-29T18:10:06.610Z,23.6
2018-05-29T18:15:37.014Z,23.5
2018-05-29T18:21:08.073Z,23.4
2018-05-29T18:26:38.848Z,23.2
2018-05-29T18:32:08.617Z,23.1
2018-05-29T18:37:39.432Z,23
2018-05-29T18:43:10.392Z,22.8
2018-05-29T18:48:41.117Z,22.7
2018-05-29T18:54:10.844Z,22.6
2018-05-29T18:59:41.609Z,22.4
2018-05-29T19:05:12.439Z,22.3
2018-05-29T19:10:43.126Z,22.3
2018-05-29T19:16:13.843Z,22.2
2018-05-29T19:21:43.842Z,22.1
2018-05-29T19:27:14.331Z,22
2018-05-29T19:32:44.107Z,21.9
2018-05-29T19:38:14.805Z,21.8
2018-05-29T19:43:44.575Z,21.7
2018-05-29T19:49:15.548Z,21.6
2018-05-29T19:54:46.331Z,21.5
2018-05-29T20:00:16.685Z,21.4
2018-05-29T20:05:46.610Z,21.4
2018-05-29T20:11:16.952Z,21.3
2018-05-29T20:16:47.922Z,21.2
2018-05-29T20:22:18.260Z,21.1
2018-05-29T20:27:47.891Z,21
2018-05-29T20:33:18.578Z,20.9
2018-05-29T20:38:49.305Z,20.8
2018-05-29T20:44:19.876Z,20.8
2018-05-29T20:49:49.379Z,20.7
2018-05-29T20:55:20.081Z,20.7
2018-05-29T21:00:49.807Z,20.6
2018-05-29T21:06:19.119Z,20.5
2018-05-29T21:11:48.657Z,20.4
2018-05-29T21:17:19.249Z,20.3
2018-05-29T21:22:48.669Z,20.3
2018-05-29T21:28:18.259Z,20.2
2018-05-29T21:33:48.719Z,20.2
2018-05-29T21:39:19.229Z,20.1
2018-05-29T21:44:49.825Z,20
2018-05-29T21:50:19.377Z,20
2018-05-29T21:55:49.643Z,19.9
2018-05-29T22:01:20.191Z,19.9
2018-05-29T22:06:50.591Z,19.8
2018-05-29T22:12:20.129Z,19.8
2018-05-29T22:17:49.512Z,19.7
2018-05-29T22:23:18.928Z,19.7
2018-05-29T22:28:48.384Z,19.7
2018-05-29T22:34:18.845Z,19.6
2018-05-29T22:39:48.273Z,19.6
2018-05-29T22:45:18.860Z,19.5
2018-05-29T22:50:48.134Z,19.4
2018-05-29T22:56:17.658Z,19.4
2018-05-29T23:01:47.958Z,19.3
2018-05-29T23:07:18.363Z,19.3
2018-05-29T23:12:48.753Z,19.2
2018-05-29T23:18:19.208Z,19.2
2018-05-29T23:23:49.518Z,19.1
2018-05-29T23:29:18.874Z,19.1
2018-05-29T23:34:48.255Z,19
2018-05-29T23:40:18.625Z,19
2018-05-29T23:45:47.981Z,18.9
2018-05-29T23:51:18.302Z,18.9
2018-05-29T23:56:48.661Z,18.9
